Time;durP1;ratioP1;P1;durP2;ratioP2;P2;SDS_P1;SDS_P2;PMS_P1;PMS_P2;Temp;Humidity;BMP_temperature;BMP_pressure;BME280_temperature;BME280_humidity;BME280_pressure;Samples;Min_cycle;Max_cycle;Signal;HPM_P1;HPM_P2
2023/09/26 00:00:07;;;;;;;6.60;6.10;;;13.50;99.90;;;;;;5015791;28;20440;-80
2023/09/26 00:02:35;;;;;;;8.07;6.87;;;13.40;99.90;;;;;;5008132;28;20519;-79
2023/09/26 00:05:03;;;;;;;6.83;6.33;;;13.40;99.90;;;;;;4995627;28;20468;-80
2023/09/26 00:07:30;;;;;;;8.20;6.90;;;13.40;99.90;;;;;;4995312;28;20824;-79
2023/09/26 00:09:57;;;;;;;6.50;6.00;;;13.40;99.90;;;;;;4995355;28;20486;-79
2023/09/26 00:12:23;;;;;;;7.07;6.57;;;13.30;99.90;;;;;;4995387;28;20451;-79
2023/09/26 00:14:50;;;;;;;7.13;6.63;;;13.30;99.90;;;;;;4994743;28;21027;-81
2023/09/26 00:17:18;;;;;;;6.47;5.97;;;;;;;;;;4994582;28;20816;-79
2023/09/26 00:19:46;;;;;;;7.23;6.03;;;13.10;99.90;;;;;;4994919;28;20436;-79
2023/09/26 00:22:12;;;;;;;6.73;6.13;;;13.10;99.90;;;;;;4994885;28;20443;-79
2023/09/26 00:24:39;;;;;;;6.73;6.27;;;13.10;99.90;;;;;;4995058;28;20472;-81
2023/09/26 00:27:06;;;;;;;7.37;6.77;;;13.10;99.90;;;;;;4994507;28;20455;-79
2023/09/26 00:29:33;;;;;;;6.23;5.73;;;13.10;99.90;;;;;;4995047;28;21003;-81
2023/09/26 00:32:00;;;;;;;7.70;7.00;;;13.10;99.90;;;;;;4995450;28;20441;-81
2023/09/26 00:34:28;;;;;;;6.83;6.30;;;13.00;99.90;;;;;;4995254;28;20441;-80
2023/09/26 00:36:56;;;;;;;7.07;6.43;;;13.00;99.90;;;;;;4996503;28;20490;-80
2023/09/26 00:39:22;;;;;;;7.10;6.40;;;13.00;99.90;;;;;;4997045;28;20828;-80
2023/09/26 00:41:49;;;;;;;7.23;6.53;;;12.90;99.90;;;;;;4996364;28;21057;-79
2023/09/26 00:44:16;;;;;;;6.90;6.40;;;12.90;99.90;;;;;;4996224;28;20809;-79
2023/09/26 00:46:43;;;;;;;7.17;6.50;;;12.80;99.90;;;;;;4996380;28;20938;-81
2023/09/26 00:49:10;;;;;;;7.63;6.93;;;12.80;99.90;;;;;;4994460;28;20455;-79
2023/09/26 00:51:38;;;;;;;7.93;7.27;;;12.80;99.90;;;;;;4994868;28;20440;-80
2023/09/26 00:54:09;;;;;;;7.63;7.03;;;12.80;99.90;;;;;;4994381;28;20444;-79
2023/09/26 00:56:37;;;;;;;7.80;7.10;;;12.80;99.90;;;;;;4994430;28;20465;-81
2023/09/26 00:59:05;;;;;;;7.13;6.43;;;12.80;99.90;;;;;;4994405;28;20445;-79
2023/09/26 01:01:33;;;;;;;7.70;7.03;;;12.70;99.90;;;;;;4994118;28;20436;-81
2023/09/26 01:04:00;;;;;;;9.43;7.57;;;12.70;99.90;;;;;;5012986;28;20443;-79
2023/09/26 01:06:27;;;;;;;7.07;6.57;;;12.70;99.90;;;;;;5013664;28;20490;-80
2023/09/26 01:08:54;;;;;;;8.00;6.70;;;12.60;99.90;;;;;;5013533;28;20448;-80
2023/09/26 01:11:22;;;;;;;7.70;7.00;;;12.60;99.90;;;;;;5014023;28;20479;-80
2023/09/26 01:13:48;;;;;;;6.90;6.40;;;12.60;99.90;;;;;;5013912;28;20450;-79
2023/09/26 01:16:16;;;;;;;8.90;8.10;;;12.60;99.90;;;;;;5013599;28;20474;-80
2023/09/26 01:18:43;;;;;;;7.90;7.10;;;12.60;99.90;;;;;;5013403;28;21055;-80
2023/09/26 01:21:10;;;;;;;7.57;7.07;;;12.60;99.90;;;;;;5013472;28;20442;-79
2023/09/26 01:23:37;;;;;;;8.50;7.30;;;12.50;99.90;;;;;;5013587;28;20826;-80
2023/09/26 01:26:05;;;;;;;6.90;6.40;;;12.50;99.90;;;;;;5013302;28;20467;-79
2023/09/26 01:28:32;;;;;;;7.60;7.00;;;12.50;99.90;;;;;;5013439;28;20436;-79
2023/09/26 01:30:59;;;;;;;8.57;7.80;;;12.40;99.90;;;;;;5013167;28;20948;-80
2023/09/26 01:33:26;;;;;;;7.60;6.93;;;12.40;99.90;;;;;;5013233;28;20447;-80
2023/09/26 01:35:52;;;;;;;8.23;7.30;;;12.50;99.90;;;;;;5013645;28;20467;-79
2023/09/26 01:38:21;;;;;;;7.20;6.70;;;12.40;99.90;;;;;;5013847;28;20443;-81
2023/09/26 01:40:48;;;;;;;7.13;6.53;;;12.40;99.90;;;;;;5014258;28;20957;-79
2023/09/26 01:43:16;;;;;;;8.27;7.50;;;12.40;99.90;;;;;;5014301;28;20440;-79
2023/09/26 01:45:43;;;;;;;8.00;7.20;;;12.30;99.90;;;;;;5013759;28;20463;-79
2023/09/26 01:48:11;;;;;;;8.87;7.33;;;12.30;99.90;;;;;;5014578;28;20440;-80
2023/09/26 01:50:37;;;;;;;7.17;6.67;;;12.30;99.90;;;;;;5013519;28;20471;-79
2023/09/26 01:53:04;;;;;;;7.13;6.53;;;12.20;99.90;;;;;;5013394;28;20443;-79
2023/09/26 01:55:31;;;;;;;7.53;6.93;;;12.20;99.90;;;;;;5012873;28;20522;-79
2023/09/26 01:57:58;;;;;;;8.20;7.60;;;12.30;99.90;;;;;;5012797;28;20435;-79
2023/09/26 02:00:26;;;;;;;8.03;7.33;;;12.20;99.90;;;;;;5012991;28;20928;-80
2023/09/26 02:02:52;;;;;;;8.07;7.30;;;12.20;99.90;;;;;;5012575;28;20836;-80
2023/09/26 02:05:21;;;;;;;8.03;7.30;;;12.20;99.90;;;;;;5014854;28;20470;-80
2023/09/26 02:07:48;;;;;;;7.10;6.70;;;12.20;99.90;;;;;;5026457;28;20952;-80
2023/09/26 02:10:15;;;;;;;7.50;6.90;;;12.10;99.90;;;;;;5013032;28;20490;-81
2023/09/26 02:12:43;;;;;;;7.73;7.03;;;12.10;99.90;;;;;;5013107;28;20494;-79
2023/09/26 02:15:12;;;;;;;8.10;7.30;;;12.10;99.90;;;;;;5012784;28;20483;-78
2023/09/26 02:17:40;;;;;;;7.67;6.97;;;12.10;99.90;;;;;;5012615;28;20447;-79
2023/09/26 02:20:12;;;;;;;8.20;7.50;;;12.00;99.90;;;;;;5012842;28;20446;-78
2023/09/26 02:22:39;;;;;;;6.80;6.30;;;12.00;99.90;;;;;;5012798;28;21008;-78
2023/09/26 02:25:06;;;;;;;7.03;6.53;;;12.00;99.90;;;;;;5011944;28;20994;-79
2023/09/26 02:27:33;;;;;;;7.60;7.10;;;12.00;99.90;;;;;;5012488;28;20454;-80
2023/09/26 02:30:00;;;;;;;7.90;7.20;;;11.90;99.90;;;;;;5012298;28;20479;-80
2023/09/26 02:32:27;;;;;;;8.40;7.60;;;11.90;99.90;;;;;;5012636;28;20666;-78
2023/09/26 02:34:55;;;;;;;8.67;7.93;;;11.90;99.90;;;;;;5012457;28;20471;-80
2023/09/26 02:37:21;;;;;;;10.30;9.50;;;11.80;99.90;;;;;;5011869;28;20462;-79
2023/09/26 02:39:49;;;;;;;8.37;7.80;;;11.80;99.90;;;;;;5012029;28;20522;-79
2023/09/26 02:42:16;;;;;;;7.20;6.70;;;11.80;99.90;;;;;;5011983;28;20805;-79
2023/09/26 02:44:42;;;;;;;7.83;7.13;;;11.80;99.90;;;;;;5011656;28;20455;-78
2023/09/26 02:47:09;;;;;;;10.43;8.23;;;11.80;99.90;;;;;;5011605;28;20444;-79
2023/09/26 02:49:36;;;;;;;7.93;7.30;;;11.70;99.90;;;;;;5011853;28;20506;-80
2023/09/26 02:52:04;;;;;;;8.43;7.63;;;11.70;99.90;;;;;;5011878;28;20447;-79
2023/09/26 02:54:31;;;;;;;8.70;7.90;;;11.80;99.90;;;;;;5011460;28;20455;-79
2023/09/26 02:56:58;;;;;;;9.67;8.77;;;11.80;99.90;;;;;;5011935;28;20472;-79
2023/09/26 02:59:25;;;;;;;9.17;8.40;;;11.70;99.90;;;;;;5012588;28;20475;-80
2023/09/26 03:01:52;;;;;;;11.13;9.03;;;11.70;99.90;;;;;;5011046;28;20471;-79
2023/09/26 03:04:19;;;;;;;10.47;9.67;;;11.70;99.90;;;;;;4992531;28;20510;-80
2023/09/26 03:06:45;;;;;;;9.80;9.00;;;11.70;99.90;;;;;;4992094;28;20455;-78
2023/09/26 03:09:15;;;;;;;10.20;9.20;;;11.70;99.90;;;;;;4992006;28;20469;-79
2023/09/26 03:11:41;;;;;;;9.47;8.77;;;11.70;99.90;;;;;;4992202;28;20566;-78
2023/09/26 03:14:08;;;;;;;8.90;8.20;;;11.60;99.90;;;;;;4992344;28;20452;-79
2023/09/26 03:16:35;;;;;;;10.00;9.20;;;11.60;99.90;;;;;;4992882;28;20469;-78
2023/09/26 03:19:01;;;;;;;10.00;9.13;;;11.60;99.90;;;;;;4992503;28;20467;-79
2023/09/26 03:21:28;;;;;;;9.87;9.07;;;11.50;99.90;;;;;;5000294;28;20444;-80
2023/09/26 03:23:55;;;;;;;10.10;9.30;;;11.50;99.90;;;;;;4993433;28;20441;-79
2023/09/26 03:26:23;;;;;;;10.70;9.80;;;11.50;99.90;;;;;;4994237;28;20476;-78
2023/09/26 03:28:50;;;;;;;10.13;9.33;;;11.50;99.90;;;;;;5004310;28;20443;-79
2023/09/26 03:31:16;;;;;;;11.57;10.63;;;11.40;99.90;;;;;;4992966;28;20484;-79
2023/09/26 03:33:43;;;;;;;11.37;10.33;;;11.40;99.90;;;;;;4992747;28;20448;-80
2023/09/26 03:36:10;;;;;;;12.10;11.10;;;11.40;99.90;;;;;;4992004;28;20464;-80
2023/09/26 03:38:36;;;;;;;11.90;10.90;;;11.40;99.90;;;;;;4992440;28;20444;-80
2023/09/26 03:41:06;;;;;;;11.77;10.70;;;11.40;99.90;;;;;;4991880;28;20441;-80
2023/09/26 03:43:34;;;;;;;12.43;11.33;;;11.40;99.90;;;;;;4992326;28;20869;-79
2023/09/26 03:46:05;;;;;;;11.03;10.13;;;11.40;99.90;;;;;;4992164;28;20460;-79
2023/09/26 03:48:34;;;;;;;15.20;14.00;;;11.40;99.90;;;;;;4991936;28;20444;-78
2023/09/26 03:51:08;;;;;;;12.23;11.23;;;11.40;99.90;;;;;;4992336;28;20484;-78
2023/09/26 03:53:35;;;;;;;12.90;11.70;;;11.40;99.90;;;;;;4992256;28;20448;-80
2023/09/26 03:56:01;;;;;;;13.07;11.87;;;11.30;99.90;;;;;;4991941;28;20526;-79
2023/09/26 03:58:28;;;;;;;12.67;11.50;;;11.30;99.90;;;;;;4992025;28;20451;-79
2023/09/26 04:00:56;;;;;;;12.70;11.60;;;11.40;99.90;;;;;;4992227;28;20444;-79
2023/09/26 04:03:23;;;;;;;12.20;11.10;;;11.30;99.90;;;;;;5005563;28;21003;-79
2023/09/26 04:05:57;;;;;;;12.00;10.90;;;11.30;99.90;;;;;;5015050;28;20828;-78
2023/09/26 04:08:23;;;;;;;11.53;10.60;;;11.30;99.90;;;;;;5020958;28;20450;-79
2023/09/26 04:10:50;;;;;;;11.50;10.60;;;11.30;99.90;;;;;;5017057;28;20489;-80
2023/09/26 04:13:17;;;;;;;13.17;12.17;;;11.30;99.90;;;;;;5023983;28;20461;-79
2023/09/26 04:15:44;;;;;;;20.87;18.80;;;11.30;99.90;;;;;;5014653;28;20490;-80
2023/09/26 04:18:12;;;;;;;15.27;13.97;;;11.30;99.90;;;;;;5022674;28;20448;-78
2023/09/26 04:20:39;;;;;;;12.40;11.10;;;11.20;99.90;;;;;;5019909;28;20951;-80
2023/09/26 04:23:06;;;;;;;13.70;12.60;;;11.20;99.90;;;;;;5018913;28;21018;-79
2023/09/26 04:25:35;;;;;;;13.40;12.30;;;11.20;99.90;;;;;;5013339;28;20467;-80
2023/09/26 04:28:03;;;;;;;13.43;12.23;;;11.20;99.90;;;;;;5017547;28;20440;-78
2023/09/26 04:30:30;;;;;;;13.43;12.20;;;11.20;99.90;;;;;;5011862;28;20522;-79
2023/09/26 04:32:57;;;;;;;13.57;12.37;;;11.10;99.90;;;;;;5025030;28;20436;-79
2023/09/26 04:35:25;;;;;;;15.67;14.13;;;11.10;99.90;;;;;;5014041;28;20468;-79
2023/09/26 04:37:52;;;;;;;14.80;13.30;;;11.10;99.90;;;;;;5014575;28;20448;-79
2023/09/26 04:40:19;;;;;;;14.40;13.20;;;11.00;99.90;;;;;;5017232;28;20533;-82
2023/09/26 04:42:49;;;;;;;14.87;13.60;;;11.10;99.90;;;;;;5035006;28;20442;-78
2023/09/26 04:45:16;;;;;;;15.50;13.90;;;11.10;99.90;;;;;;5034588;28;20474;-80
2023/09/26 04:47:43;;;;;;;14.20;12.83;;;11.00;99.90;;;;;;5035063;28;20442;-78
2023/09/26 04:50:10;;;;;;;15.53;13.93;;;11.00;99.90;;;;;;5036494;28;20442;-78
2023/09/26 04:52:38;;;;;;;16.00;14.50;;;11.00;99.90;;;;;;5019031;28;20486;-79
2023/09/26 04:55:05;;;;;;;15.30;13.80;;;11.00;99.90;;;;;;5014865;28;20474;-79
2023/09/26 04:57:32;;;;;;;14.77;13.40;;;11.00;99.90;;;;;;5015026;28;20443;-79
2023/09/26 04:59:59;;;;;;;14.23;12.90;;;11.00;99.90;;;;;;5018553;28;20448;-78
2023/09/26 05:02:25;;;;;;;14.60;13.20;;;11.10;99.90;;;;;;5011904;28;20495;-79
2023/09/26 05:04:52;;;;;;;15.70;14.20;;;10.90;99.90;;;;;;4997075;28;20472;-80
2023/09/26 05:07:19;;;;;;;14.37;12.87;;;11.10;99.90;;;;;;4996711;28;20444;-78
2023/09/26 05:09:47;;;;;;;15.80;14.27;;;11.00;99.90;;;;;;4998200;28;20448;-80
2023/09/26 05:12:14;;;;;;;16.10;14.60;;;11.10;99.90;;;;;;5003785;28;20853;-80
2023/09/26 05:14:40;;;;;;;14.90;13.60;;;11.20;99.90;;;;;;5036111;28;20458;-79
2023/09/26 05:17:07;;;;;;;15.20;13.67;;;11.00;99.90;;;;;;5035992;28;20446;-79
2023/09/26 05:19:34;;;;;;;15.57;14.00;;;11.00;99.90;;;;;;5034729;28;20445;-80
2023/09/26 05:22:00;;;;;;;15.43;13.20;;;11.00;99.90;;;;;;5034469;28;20435;-80
2023/09/26 05:24:27;;;;;;;15.60;14.20;;;11.00;99.90;;;;;;5035610;28;20443;-80
2023/09/26 05:26:55;;;;;;;14.87;13.40;;;11.00;99.90;;;;;;5035459;28;20458;-79
2023/09/26 05:29:22;;;;;;;14.50;13.07;;;11.40;99.90;;;;;;5035348;28;20443;-79
2023/09/26 05:31:49;;;;;;;15.80;14.27;;;11.10;99.90;;;;;;5035103;28;20649;-79
2023/09/26 05:34:15;;;;;;;15.20;13.70;;;11.10;99.90;;;;;;5050354;28;20439;-79
2023/09/26 05:36:42;;;;;;;14.67;13.43;;;11.10;99.90;;;;;;5050279;28;20443;-79
2023/09/26 05:39:09;;;;;;;13.90;12.70;;;11.10;99.90;;;;;;5046219;28;20446;-79
2023/09/26 05:41:35;;;;;;;14.87;13.43;;;11.20;99.90;;;;;;5047809;28;20497;-79
2023/09/26 05:44:04;;;;;;;19.13;14.13;;;11.20;99.90;;;;;;5048462;28;20443;-79
2023/09/26 05:46:30;;;;;;;14.73;13.30;;;11.20;99.90;;;;;;5048720;28;20466;-77
2023/09/26 05:48:57;;;;;;;15.50;14.10;;;11.20;99.90;;;;;;5045700;28;20512;-80
2023/09/26 05:51:24;;;;;;;17.43;15.83;;;11.20;99.90;;;;;;5035188;28;20481;-79
2023/09/26 05:53:50;;;;;;;17.80;15.87;;;11.30;99.90;;;;;;5033380;28;20443;-79
2023/09/26 05:56:17;;;;;;;16.07;14.47;;;11.30;99.90;;;;;;5034026;28;20466;-81
2023/09/26 05:58:46;;;;;;;17.13;14.93;;;11.30;99.90;;;;;;5033486;28;20446;-79
2023/09/26 06:01:14;;;;;;;26.33;18.90;;;11.40;99.90;;;;;;5034286;28;20443;-81
2023/09/26 06:03:41;;;;;;;18.70;14.27;;;11.40;99.90;;;;;;5017156;28;20471;-80
2023/09/26 06:06:07;;;;;;;14.83;13.43;;;11.50;99.90;;;;;;5013632;28;20471;-81
2023/09/26 06:08:34;;;;;;;14.40;13.00;;;11.60;99.90;;;;;;5014002;28;20450;-80
2023/09/26 06:11:02;;;;;;;14.83;13.10;;;11.60;99.90;;;;;;5013786;28;20475;-79
2023/09/26 06:13:29;;;;;;;14.47;13.07;;;11.60;99.90;;;;;;5013472;28;20450;-79
2023/09/26 06:15:55;;;;;;;13.70;12.33;;;11.70;99.90;;;;;;5013296;28;20463;-79
2023/09/26 06:18:25;;;;;;;13.50;12.20;;;11.70;99.90;;;;;;5013384;28;20447;-79
2023/09/26 06:20:53;;;;;;;18.97;14.13;;;11.80;99.90;;;;;;5013350;28;20451;-79
2023/09/26 06:23:21;;;;;;;13.73;12.33;;;11.80;99.90;;;;;;5013414;28;20454;-80
2023/09/26 06:25:57;;;;;;;14.80;11.70;;;11.80;99.90;;;;;;5013111;28;20482;-81
2023/09/26 06:28:24;;;;;;;12.93;11.20;;;11.90;99.90;;;;;;5013069;28;20907;-81
2023/09/26 06:30:50;;;;;;;13.30;12.20;;;12.00;99.90;;;;;;5014914;28;20454;-79
2023/09/26 06:33:17;;;;;;;14.13;12.83;;;12.00;99.90;;;;;;5012285;28;20454;-79
2023/09/26 06:35:45;;;;;;;13.60;12.20;;;12.00;99.90;;;;;;5012011;28;20464;-79
2023/09/26 06:38:12;;;;;;;14.00;12.70;;;12.10;99.90;;;;;;5011982;28;21031;-81
2023/09/26 06:40:40;;;;;;;14.50;13.10;;;12.10;99.90;;;;;;5012534;28;20886;-79
2023/09/26 06:43:07;;;;;;;12.73;11.63;;;12.30;99.90;;;;;;5013939;28;20436;-80
2023/09/26 06:45:33;;;;;;;13.33;12.13;;;12.20;99.90;;;;;;5013392;28;20459;-80
2023/09/26 06:48:00;;;;;;;13.00;11.70;;;12.20;99.90;;;;;;5012674;28;20829;-80
2023/09/26 06:50:27;;;;;;;13.03;11.93;;;12.30;99.90;;;;;;5014555;28;20447;-82
2023/09/26 06:52:55;;;;;;;12.33;11.23;;;12.30;99.90;;;;;;5015478;28;21007;-81
2023/09/26 06:55:21;;;;;;;13.40;12.20;;;12.40;99.90;;;;;;5017068;28;20467;-80
2023/09/26 06:57:48;;;;;;;12.53;11.53;;;12.60;99.90;;;;;;5015894;28;20455;-80
2023/09/26 07:00:16;;;;;;;12.47;11.53;;;12.50;99.90;;;;;;5016528;28;20443;-81
2023/09/26 07:02:43;;;;;;;12.83;11.50;;;12.60;99.90;;;;;;5007702;28;20873;-82
2023/09/26 07:05:11;;;;;;;12.30;11.20;;;12.60;99.90;;;;;;4996003;28;20479;-81
2023/09/26 07:07:38;;;;;;;12.67;11.50;;;12.80;99.90;;;;;;4996842;28;20448;-81
2023/09/26 07:10:08;;;;;;;12.70;11.50;;;12.80;99.90;;;;;;4996765;28;20448;-80
2023/09/26 07:12:34;;;;;;;12.13;11.00;;;13.10;99.90;;;;;;4996711;28;20495;-81
2023/09/26 07:15:01;;;;;;;12.60;11.40;;;13.10;99.90;;;;;;4996714;28;20475;-81
2023/09/26 07:17:28;;;;;;;12.47;11.20;;;13.10;99.90;;;;;;4996517;28;20564;-81
2023/09/26 07:19:55;;;;;;;14.90;11.67;;;13.20;99.90;;;;;;4996968;28;20440;-82
2023/09/26 07:22:24;;;;;;;11.40;10.40;;;13.30;99.90;;;;;;4997505;28;20445;-80
2023/09/26 07:24:51;;;;;;;11.87;10.87;;;13.50;99.90;;;;;;4996328;28;20468;-80
2023/09/26 07:27:20;;;;;;;12.27;11.07;;;13.60;99.90;;;;;;4995753;28;20452;-81
2023/09/26 07:29:47;;;;;;;10.93;9.67;;;13.70;99.90;;;;;;4996984;28;20456;-80
2023/09/26 07:32:15;;;;;;;11.37;10.37;;;13.80;99.90;;;;;;5013796;28;20468;-80
2023/09/26 07:34:42;;;;;;;10.97;10.17;;;13.90;99.90;;;;;;5014968;28;20460;-80
2023/09/26 07:37:09;;;;;;;10.20;9.30;;;14.00;99.90;;;;;;4994458;28;20584;-80
2023/09/26 07:39:35;;;;;;;10.63;9.53;;;14.20;99.90;;;;;;4994943;28;20444;-80
2023/09/26 07:42:03;;;;;;;11.40;10.40;;;14.40;99.90;;;;;;4996107;28;20447;-80
2023/09/26 07:44:32;;;;;;;10.07;9.27;;;14.50;99.90;;;;;;4997062;28;20448;-80
2023/09/26 07:46:59;;;;;;;10.47;9.67;;;14.60;99.90;;;;;;4997538;28;20487;-80
2023/09/26 07:49:25;;;;;;;9.53;8.73;;;14.80;99.90;;;;;;4998838;28;20834;-80
2023/09/26 07:51:52;;;;;;;11.93;9.27;;;14.90;99.90;;;;;;4998466;28;21020;-81
2023/09/26 07:54:18;;;;;;;9.67;8.67;;;15.10;99.90;;;;;;4997805;28;20444;-80
2023/09/26 07:56:45;;;;;;;9.83;8.80;;;15.30;99.90;;;;;;4998155;28;20484;-79
2023/09/26 07:59:12;;;;;;;13.80;8.90;;;15.50;99.90;;;;;;4999575;28;20455;-79
2023/09/26 08:01:40;;;;;;;12.70;8.70;;;15.60;99.90;;;;;;4998285;28;20448;-81
2023/09/26 08:04:07;;;;;;;10.23;9.20;;;15.70;99.90;;;;;;5020515;28;20467;-78
2023/09/26 08:06:34;;;;;;;9.10;8.20;;;16.00;99.90;;;;;;5021033;28;20474;-80
2023/09/26 08:09:00;;;;;;;9.13;8.43;;;16.30;99.90;;;;;;5021389;28;20452;-79
2023/09/26 08:11:28;;;;;;;9.73;8.63;;;16.30;99.90;;;;;;5021868;28;20455;-79
2023/09/26 08:13:55;;;;;;;8.20;7.43;;;16.40;99.90;;;;;;5018757;28;20451;-79
2023/09/26 08:16:22;;;;;;;8.70;8.00;;;16.60;99.90;;;;;;5017480;28;20471;-79
2023/09/26 08:18:50;;;;;;;8.23;7.43;;;16.90;99.90;;;;;;5017954;28;20820;-80
2023/09/26 08:21:18;;;;;;;11.80;8.40;;;17.20;99.90;;;;;;5017823;28;20447;-80
2023/09/26 08:23:45;;;;;;;9.60;7.80;;;17.20;99.90;;;;;;5018816;28;20447;-80
2023/09/26 08:26:11;;;;;;;7.53;6.90;;;17.60;99.90;;;;;;5019611;28;20482;-78
2023/09/26 08:28:38;;;;;;;9.27;6.87;;;17.70;99.90;;;;;;5018601;28;20439;-79
2023/09/26 08:31:07;;;;;;;8.00;7.00;;;17.90;99.90;;;;;;5018763;28;20442;-81
2023/09/26 08:33:34;;;;;;;7.40;6.80;;;18.60;99.90;;;;;;5017884;28;20577;-80
2023/09/26 08:36:02;;;;;;;8.37;7.63;;;18.40;99.90;;;;;;5017276;28;20471;-79
2023/09/26 08:38:29;;;;;;;7.70;7.00;;;18.50;99.90;;;;;;5018485;28;20458;-81
2023/09/26 08:40:58;;;;;;;10.37;6.83;;;18.60;99.90;;;;;;5017825;28;20854;-80
2023/09/26 08:43:27;;;;;;;9.80;7.63;;;18.80;99.90;;;;;;5017304;28;20450;-80
2023/09/26 08:45:54;;;;;;;8.30;6.53;;;19.10;99.90;;;;;;5016404;28;20545;-79
2023/09/26 08:48:21;;;;;;;6.90;6.33;;;19.30;99.90;;;;;;5017600;28;20656;-80
2023/09/26 08:50:48;;;;;;;9.43;6.97;;;19.70;99.90;;;;;;5017403;28;20452;-79
2023/09/26 08:53:16;;;;;;;7.80;7.10;;;19.80;99.90;;;;;;5016833;28;20479;-79
2023/09/26 08:55:43;;;;;;;7.30;6.67;;;19.80;99.90;;;;;;5017213;28;20467;-79
2023/09/26 08:58:10;;;;;;;7.47;6.80;;;20.00;99.90;;;;;;5015702;28;20494;-79
2023/09/26 09:00:37;;;;;;;7.00;6.50;;;20.20;99.90;;;;;;5015934;28;20828;-79
2023/09/26 09:03:04;;;;;;;7.40;6.90;;;20.50;99.90;;;;;;5016744;28;20462;-79
2023/09/26 09:05:31;;;;;;;7.10;6.50;;;20.50;99.90;;;;;;5015551;28;20826;-83
2023/09/26 09:07:58;;;;;;;7.80;6.30;;;20.80;99.90;;;;;;5016457;28;20444;-79
2023/09/26 09:10:26;;;;;;;9.00;6.80;;;20.90;99.90;;;;;;5017191;28;20519;-80
2023/09/26 09:13:02;;;;;;;10.03;8.97;;;21.00;99.90;;;;;;5017586;28;20483;-78
2023/09/26 09:15:30;;;;;;;12.00;7.03;;;20.90;99.90;;;;;;5017195;28;20463;-82
2023/09/26 09:17:57;;;;;;;7.93;7.13;;;20.90;99.90;;;;;;5028432;28;20439;-80
2023/09/26 09:20:33;;;;;;;9.03;7.10;;;20.40;99.90;;;;;;5020897;28;20811;-79
2023/09/26 09:23:01;;;;;;;9.70;7.07;;;20.80;99.90;;;;;;5017217;28;20753;-82
2023/09/26 09:25:32;;;;;;;7.30;6.60;;;21.20;99.90;;;;;;5017300;28;20529;-78
2023/09/26 09:28:04;;;;;;;7.83;7.13;;;21.60;99.90;;;;;;5017009;28;20443;-81
2023/09/26 09:30:37;;;;;;;9.77;6.97;;;21.80;99.90;;;;;;5015966;28;20518;-80
2023/09/26 09:33:04;;;;;;;9.50;7.50;;;21.70;99.90;;;;;;5017014;28;20852;-81
2023/09/26 09:35:31;;;;;;;10.43;7.30;;;21.70;99.90;;;;;;5016546;28;20467;-81
2023/09/26 09:37:58;;;;;;;7.80;7.00;;;21.80;99.90;;;;;;5016740;28;20443;-79
2023/09/26 09:40:25;;;;;;;8.43;7.60;;;22.20;99.90;;;;;;5017230;28;20454;-81
2023/09/26 09:42:54;;;;;;;9.37;6.90;;;21.80;99.90;;;;;;5016229;28;20470;-79
2023/09/26 09:45:20;;;;;;;7.07;6.57;;;22.20;99.90;;;;;;5016356;28;20475;-79
2023/09/26 09:47:48;;;;;;;6.90;6.40;;;22.70;99.90;;;;;;5015640;28;20457;-82
2023/09/26 09:50:16;;;;;;;7.03;6.43;;;23.10;99.90;;;;;;5015757;28;20469;-80
2023/09/26 09:52:44;;;;;;;6.70;6.10;;;23.20;99.90;;;;;;5015840;28;20475;-79
2023/09/26 09:55:17;;;;;;;8.97;7.20;;;23.50;99.90;;;;;;5014699;28;20479;-79
2023/09/26 09:57:49;;;;;;;7.17;6.50;;;23.60;99.90;;;;;;5016035;28;20431;-80
2023/09/26 10:00:19;;;;;;;6.77;6.27;;;23.60;99.90;;;;;;5015576;28;20941;-80
2023/09/26 10:02:47;;;;;;;9.03;7.50;;;23.90;99.90;;;;;;5015267;28;20442;-79
2023/09/26 10:05:14;;;;;;;7.47;6.70;;;23.80;99.90;;;;;;5015003;28;20463;-81
2023/09/26 10:07:42;;;;;;;6.53;6.03;;;24.10;99.90;;;;;;5016058;28;20448;-79
2023/09/26 10:10:12;;;;;;;6.80;6.30;;;24.20;99.90;;;;;;5016547;28;20848;-81
2023/09/26 10:12:40;;;;;;;10.27;9.33;;;24.40;99.90;;;;;;5016400;28;21011;-79
2023/09/26 10:15:10;;;;;;;5.83;5.43;;;24.70;99.90;;;;;;5016155;28;20594;-80
2023/09/26 10:17:39;;;;;;;6.20;5.60;;;24.40;99.90;;;;;;5015801;28;20443;-79
2023/09/26 10:20:10;;;;;;;6.33;5.00;;;24.40;99.90;;;;;;5015239;28;20442;-80
2023/09/26 10:22:38;;;;;;;5.33;4.93;;;24.60;99.90;;;;;;5014366;28;20991;-78
2023/09/26 10:25:07;;;;;;;6.47;5.07;;;24.90;99.90;;;;;;5014257;28;20494;-78
2023/09/26 10:27:39;;;;;;;4.60;4.30;;;24.30;99.90;;;;;;5014211;28;20454;-80
2023/09/26 10:30:10;;;;;;;5.43;4.23;;;24.90;99.90;;;;;;5013129;28;20440;-79
2023/09/26 10:32:41;;;;;;;5.00;4.70;;;25.30;99.90;;;;;;5013663;28;20999;-78
2023/09/26 10:35:28;;;;;;;5.20;4.70;;;25.10;99.90;;;;;;5013747;28;20467;-80
2023/09/26 10:38:01;;;;;;;5.80;4.60;;;24.40;99.90;;;;;;5013812;28;20431;-78
2023/09/26 10:40:29;;;;;;;5.10;4.70;;;24.40;99.90;;;;;;5013953;28;20451;-79
2023/09/26 10:42:55;;;;;;;5.90;4.40;;;25.00;99.90;;;;;;5014696;28;20493;-82
2023/09/26 10:45:22;;;;;;;4.70;3.70;;;25.40;99.90;;;;;;5015169;28;20527;-80
2023/09/26 10:47:51;;;;;;;4.83;4.30;;;26.10;99.90;;;;;;5015039;28;20987;-78
2023/09/26 10:50:16;;;;;;;4.87;4.13;;;26.20;99.90;;;;;;5014010;28;20462;-79
2023/09/26 10:52:47;;;;;;;4.53;3.90;;;26.40;99.90;;;;;;5014830;28;20841;-80
2023/09/26 10:55:15;;;;;;;4.23;3.93;;;26.70;99.90;;;;;;5014696;28;20452;-80
2023/09/26 10:57:43;;;;;;;6.53;4.33;;;26.70;99.90;;;;;;5015574;28;20435;-80
2023/09/26 11:00:12;;;;;;;5.70;4.20;;;25.20;99.90;;;;;;5013065;28;20451;-82
2023/09/26 11:02:39;;;;;;;7.33;4.13;;;25.40;99.90;;;;;;5012588;28;20952;-79
2023/09/26 11:05:09;;;;;;;5.10;3.90;;;25.10;99.90;;;;;;5013795;28;20491;-82
2023/09/26 11:07:36;;;;;;;3.60;3.30;;;26.00;99.90;;;;;;5016511;28;20713;-80
2023/09/26 11:10:04;;;;;;;4.90;4.43;;;26.70;99.90;;;;;;5006655;28;20440;-80
2023/09/26 11:12:31;;;;;;;3.60;3.30;;;27.10;99.90;;;;;;5000603;28;20921;-81
2023/09/26 11:14:59;;;;;;;3.20;2.97;;;27.10;99.90;;;;;;5008608;28;20547;-81
2023/09/26 11:17:27;;;;;;;4.10;3.30;;;27.70;99.90;;;;;;5006010;28;20447;-81
2023/09/26 11:19:56;;;;;;;3.70;3.30;;;27.40;99.90;;;;;;5011047;28;20457;-82
2023/09/26 11:22:24;;;;;;;3.70;3.33;;;27.80;99.90;;;;;;5008000;28;20532;-81
2023/09/26 11:25:04;;;;;;;3.80;3.47;;;28.10;99.90;;;;;;5011748;28;20467;-80
2023/09/26 11:27:31;;;;;;;4.10;2.77;;;27.50;99.90;;;;;;5006854;28;20432;-82
2023/09/26 11:30:00;;;;;;;3.40;3.20;;;28.00;99.90;;;;;;5010226;28;20440;-79
2023/09/26 11:32:28;;;;;;;5.73;3.40;;;28.30;99.90;;;;;;5014668;28;20475;-82
2023/09/26 11:34:55;;;;;;;5.63;3.53;;;28.00;99.90;;;;;;5013467;28;20471;-82
2023/09/26 11:37:24;;;;;;;3.93;3.37;;;28.00;99.90;;;;;;5003852;28;20452;-82
2023/09/26 11:39:51;;;;;;;3.00;2.80;;;27.80;99.90;;;;;;4998126;28;20444;-80
2023/09/26 11:42:19;;;;;;;3.87;3.50;;;27.60;99.90;;;;;;4998884;28;20447;-80
2023/09/26 11:44:52;;;;;;;2.73;2.53;;;27.10;99.90;;;;;;4999681;28;20544;-82
2023/09/26 11:47:21;;;;;;;3.60;2.37;;;28.10;99.90;;;;;;4998415;28;20789;-80
2023/09/26 11:49:48;;;;;;;2.30;2.20;;;28.70;99.90;;;;;;4998949;28;20827;-81
2023/09/26 11:52:16;;;;;;;3.80;2.37;;;29.20;99.90;;;;;;4998145;28;20482;-81
2023/09/26 11:54:44;;;;;;;2.20;2.00;;;29.70;99.90;;;;;;5000162;28;20564;-79
2023/09/26 11:57:13;;;;;;;3.63;2.20;;;30.30;99.00;;;;;;5000446;28;20747;-79
2023/09/26 11:59:40;;;;;;;2.63;1.90;;;30.50;97.90;;;;;;5001612;28;20444;-82
2023/09/26 12:02:08;;;;;;;2.63;2.30;;;30.50;97.10;;;;;;5009271;28;20443;-81
2023/09/26 12:04:36;;;;;;;3.53;2.53;;;30.50;96.40;;;;;;5025897;28;20487;-80
2023/09/26 12:07:05;;;;;;;3.40;2.20;;;30.70;95.50;;;;;;5029647;28;20439;-82
2023/09/26 12:09:33;;;;;;;8.10;2.37;;;31.10;95.20;;;;;;5031896;28;20439;-81
2023/09/26 12:12:01;;;;;;;1.97;1.87;;;31.00;94.70;;;;;;5029862;28;20451;-83
2023/09/26 12:14:27;;;;;;;2.23;1.77;;;31.00;93.10;;;;;;5029981;28;20514;-81
2023/09/26 12:16:56;;;;;;;3.23;2.10;;;30.80;93.20;;;;;;5031578;28;20455;-80
2023/09/26 12:19:23;;;;;;;2.53;2.33;;;30.80;92.20;;;;;;5032497;28;20457;-83
2023/09/26 12:21:50;;;;;;;2.03;1.70;;;30.90;92.40;;;;;;5023366;28;20447;-80
2023/09/26 12:24:17;;;;;;;2.33;2.10;;;30.90;92.00;;;;;;5021229;28;20443;-82
2023/09/26 12:26:46;;;;;;;2.77;1.80;;;31.50;91.60;;;;;;5018074;28;20463;-82
2023/09/26 12:29:14;;;;;;;1.70;1.60;;;31.80;90.40;;;;;;5019480;28;20485;-83
2023/09/26 12:31:42;;;;;;;2.40;2.00;;;31.70;89.30;;;;;;5018187;28;20905;-81
2023/09/26 12:34:09;;;;;;;2.20;2.00;;;31.70;87.00;;;;;;5018311;28;20505;-82
2023/09/26 12:36:36;;;;;;;1.60;1.50;;;31.80;87.00;;;;;;5017416;28;20471;-81
2023/09/26 12:39:03;;;;;;;1.90;1.67;;;31.60;85.50;;;;;;5018929;28;20447;-82
2023/09/26 12:41:30;;;;;;;2.17;1.97;;;31.10;84.50;;;;;;5018144;28;20456;-82